createdAt,value
2023-01-30T00:01:27.171Z,59.20
2023-01-30T00:03:54.721Z,59.20
2023-01-30T00:06:22.791Z,59.30
2023-01-30T00:08:50.629Z,59.20
2023-01-30T00:11:22.231Z,59.10
2023-01-30T00:13:50.804Z,59.00
2023-01-30T00:16:18.771Z,58.90
2023-01-30T00:18:46.177Z,59.00
2023-01-30T00:21:16.970Z,58.90
2023-01-30T00:23:44.852Z,58.90
2023-01-30T00:26:12.876Z,59.00
2023-01-30T00:28:42.743Z,59.20
2023-01-30T00:31:10.103Z,59.20
2023-01-30T00:33:41.584Z,59.20
2023-01-30T00:36:10.678Z,59.20
2023-01-30T00:38:40.387Z,59.20
2023-01-30T00:41:07.899Z,59.20
2023-01-30T00:43:53.904Z,59.20
2023-01-30T00:46:51.838Z,59.20
2023-01-30T00:49:22.105Z,59.10
2023-01-30T00:51:49.405Z,59.10
2023-01-30T00:54:18.791Z,59.10
2023-01-30T00:56:46.064Z,59.00
2023-01-30T00:59:15.420Z,59.00
2023-01-30T01:01:42.800Z,59.10
2023-01-30T01:04:13.634Z,59.20
2023-01-30T01:06:40.911Z,59.20
2023-01-30T01:09:08.378Z,59.20
2023-01-30T01:11:38.297Z,59.20
2023-01-30T01:14:06.467Z,59.10
2023-01-30T01:16:34.957Z,59.00
2023-01-30T01:19:05.405Z,59.00
2023-01-30T01:21:32.722Z,59.00
2023-01-30T01:24:01.011Z,59.00
2023-01-30T01:26:28.392Z,58.90
2023-01-30T01:28:57.157Z,58.90
2023-01-30T01:31:25.664Z,58.90
2023-01-30T01:33:55.764Z,58.90
2023-01-30T01:36:51.571Z,59.00
2023-01-30T01:39:10.734Z,58.80
2023-01-30T01:41:38.171Z,58.90
2023-01-30T01:44:13.939Z,58.80
2023-01-30T01:47:00.116Z,58.80
2023-01-30T01:49:35.338Z,58.90
2023-01-30T01:52:09.569Z,59.00
2023-01-30T01:54:39.657Z,58.50
2023-01-30T01:57:16.567Z,58.80
2023-01-30T01:59:52.803Z,58.60
2023-01-30T02:02:21.271Z,58.70
2023-01-30T02:05:05.221Z,58.70
2023-01-30T02:08:01.729Z,58.50
2023-01-30T02:10:44.668Z,59.20
2023-01-30T02:13:11.954Z,58.60
2023-01-30T02:15:39.925Z,58.70
2023-01-30T02:18:07.671Z,58.70
2023-01-30T02:20:46.051Z,58.80
2023-01-30T02:23:53.933Z,58.70
2023-01-30T02:26:49.005Z,58.70
2023-01-30T02:29:51.225Z,58.80
2023-01-30T02:32:30.584Z,58.90
2023-01-30T02:35:09.505Z,59.10
2023-01-30T02:37:45.694Z,58.90
2023-01-30T02:40:52.160Z,59.10
2023-01-30T02:43:37.305Z,59.20
2023-01-30T02:46:12.216Z,58.90
2023-01-30T02:48:48.268Z,59.00
2023-01-30T02:51:33.364Z,59.00
2023-01-30T02:54:01.066Z,58.90
2023-01-30T02:56:28.378Z,59.20
2023-01-30T02:59:01.750Z,59.20
2023-01-30T03:01:47.864Z,59.20
2023-01-30T03:04:26.479Z,59.20
2023-01-30T03:07:23.337Z,59.00
2023-01-30T03:10:25.414Z,59.10
2023-01-30T03:13:01.227Z,58.70
2023-01-30T03:15:49.868Z,58.80
2023-01-30T03:18:19.602Z,58.60
2023-01-30T03:20:49.670Z,58.70
2023-01-30T03:23:17.229Z,58.50
2023-01-30T03:25:46.194Z,58.40
2023-01-30T03:28:19.867Z,58.50
2023-01-30T03:30:49.585Z,58.50
2023-01-30T03:33:16.920Z,58.50
2023-01-30T03:35:46.745Z,58.50
2023-01-30T03:38:16.522Z,58.40
2023-01-30T03:40:46.742Z,58.50
2023-01-30T03:43:18.381Z,58.50
2023-01-30T03:45:48.229Z,58.50
2023-01-30T03:48:15.502Z,58.40
2023-01-30T03:50:43.444Z,58.40
2023-01-30T03:53:10.953Z,58.50
2023-01-30T03:55:40.615Z,58.50
2023-01-30T03:58:07.880Z,58.50
2023-01-30T04:00:35.249Z,58.50
2023-01-30T04:03:04.664Z,58.50
2023-01-30T04:05:34.192Z,58.60
2023-01-30T04:08:01.488Z,58.60
2023-01-30T04:10:31.231Z,58.60
2023-01-30T04:12:58.508Z,58.60
2023-01-30T04:15:25.813Z,58.60
2023-01-30T04:17:55.483Z,58.60
2023-01-30T04:20:22.807Z,58.60
2023-01-30T04:22:50.106Z,58.60
2023-01-30T04:25:17.683Z,58.60
2023-01-30T04:27:47.579Z,58.60
2023-01-30T04:30:19.998Z,58.50
2023-01-30T04:32:47.288Z,58.50
2023-01-30T04:35:14.688Z,58.30
2023-01-30T04:37:46.716Z,58.20
2023-01-30T04:40:14.008Z,58.10
2023-01-30T04:42:41.262Z,58.20
2023-01-30T04:45:11.320Z,58.20
2023-01-30T04:47:38.639Z,58.40
2023-01-30T04:50:06.618Z,58.50
2023-01-30T04:52:34.011Z,58.60
2023-01-30T04:55:03.573Z,58.70
2023-01-30T04:57:30.856Z,58.60
2023-01-30T05:00:00.248Z,58.50
2023-01-30T05:02:27.529Z,58.60
2023-01-30T05:04:54.792Z,58.60
2023-01-30T05:07:24.259Z,58.60
2023-01-30T05:09:53.742Z,58.60
2023-01-30T05:12:25.609Z,58.70
2023-01-30T05:14:52.900Z,58.70
2023-01-30T05:17:20.191Z,58.70
2023-01-30T05:19:50.188Z,58.70
2023-01-30T05:22:19.909Z,58.70
2023-01-30T05:24:49.624Z,58.70
2023-01-30T05:27:21.897Z,58.70
2023-01-30T05:29:49.190Z,58.80
2023-01-30T05:32:17.895Z,58.80
2023-01-30T05:34:45.149Z,58.80
2023-01-30T05:37:12.655Z,58.70
2023-01-30T05:39:40.008Z,58.60
2023-01-30T05:42:07.285Z,58.50
2023-01-30T05:44:34.566Z,58.50
2023-01-30T05:47:01.820Z,58.30
2023-01-30T05:49:31.396Z,58.20
2023-01-30T05:51:58.693Z,58.50
2023-01-30T05:54:26.004Z,58.00
2023-01-30T05:56:53.287Z,58.00
2023-01-30T05:59:20.679Z,57.70
2023-01-30T06:01:50.206Z,57.70
2023-01-30T06:04:19.694Z,57.90
2023-01-30T06:06:49.698Z,57.90
2023-01-30T06:09:17.019Z,57.90
2023-01-30T06:11:48.600Z,57.90
2023-01-30T06:14:15.849Z,58.00
2023-01-30T06:16:43.204Z,58.00
2023-01-30T06:19:10.578Z,58.10
2023-01-30T06:21:42.714Z,58.10
2023-01-30T06:24:12.089Z,58.20
2023-01-30T06:26:39.352Z,58.20
2023-01-30T06:29:06.741Z,58.10
2023-01-30T06:31:34.083Z,58.10
2023-01-30T06:34:03.573Z,57.90
2023-01-30T06:36:30.867Z,58.00
2023-01-30T06:38:58.151Z,58.00
2023-01-30T06:41:27.559Z,58.00
2023-01-30T06:43:55.649Z,58.10
2023-01-30T06:46:22.977Z,58.10
2023-01-30T06:48:50.271Z,58.00
2023-01-30T06:51:17.711Z,57.80
2023-01-30T06:53:47.189Z,57.80
2023-01-30T06:56:14.505Z,57.80
2023-01-30T06:58:44.037Z,57.80
2023-01-30T07:01:12.870Z,57.80
2023-01-30T07:03:40.127Z,57.70
2023-01-30T07:06:12.375Z,57.80
2023-01-30T07:08:40.942Z,57.90
2023-01-30T07:11:08.251Z,57.70
2023-01-30T07:13:37.958Z,57.60
2023-01-30T07:16:07.944Z,57.70
2023-01-30T07:18:35.219Z,57.70
2023-01-30T07:21:02.525Z,57.60
2023-01-30T07:23:29.804Z,57.60
2023-01-30T07:25:57.074Z,57.60
2023-01-30T07:28:24.335Z,57.70
2023-01-30T07:30:52.958Z,57.60
2023-01-30T07:33:20.858Z,57.40
2023-01-30T07:35:48.280Z,56.80
2023-01-30T07:38:15.573Z,56.90
2023-01-30T07:40:42.831Z,56.60
2023-01-30T07:43:14.184Z,56.60
2023-01-30T07:45:42.860Z,56.50
2023-01-30T07:48:12.493Z,56.60
2023-01-30T07:50:42.931Z,56.70
2023-01-30T07:53:12.692Z,57.00
2023-01-30T07:55:42.772Z,57.10
2023-01-30T07:58:15.019Z,57.10
2023-01-30T08:00:45.206Z,56.90
2023-01-30T08:03:17.098Z,57.00
2023-01-30T08:05:46.789Z,57.00
2023-01-30T08:08:14.596Z,57.30
2023-01-30T08:10:42.119Z,56.90
2023-01-30T08:13:09.430Z,56.30
2023-01-30T08:15:38.957Z,56.10
2023-01-30T08:18:08.404Z,55.80
2023-01-30T08:20:39.985Z,56.00
2023-01-30T08:23:07.327Z,56.10
2023-01-30T08:25:37.769Z,56.10
2023-01-30T08:28:07.489Z,56.30
2023-01-30T08:30:37.126Z,56.10
2023-01-30T08:33:04.413Z,56.20
2023-01-30T08:35:34.126Z,56.40
2023-01-30T08:38:03.385Z,56.00
2023-01-30T08:40:35.228Z,56.10
2023-01-30T08:43:02.412Z,56.00
2023-01-30T08:45:30.120Z,56.30
2023-01-30T08:48:01.818Z,55.90
2023-01-30T08:50:31.603Z,55.80
2023-01-30T08:53:04.285Z,55.90
2023-01-30T08:55:31.714Z,55.90
2023-01-30T08:58:01.593Z,55.50
2023-01-30T09:00:29.074Z,55.40
2023-01-30T09:02:58.905Z,54.90
2023-01-30T09:05:29.997Z,54.10
2023-01-30T09:07:57.294Z,54.10
2023-01-30T09:10:24.637Z,54.00
2023-01-30T09:12:51.971Z,54.10
2023-01-30T09:15:19.237Z,54.50
2023-01-30T09:17:46.584Z,54.50
2023-01-30T09:20:13.928Z,54.40
2023-01-30T09:22:41.288Z,54.40
2023-01-30T09:25:09.355Z,54.30
2023-01-30T09:27:37.033Z,54.70
2023-01-30T09:30:10.391Z,54.00
2023-01-30T09:32:40.030Z,54.10
2023-01-30T09:35:08.466Z,53.70
2023-01-30T09:37:38.043Z,54.50
2023-01-30T09:40:06.110Z,55.00
2023-01-30T09:42:54.724Z,54.80
2023-01-30T09:45:29.626Z,54.60
2023-01-30T09:48:19.967Z,53.80
2023-01-30T09:51:14.864Z,54.30
2023-01-30T09:54:00.989Z,53.50
2023-01-30T09:56:28.494Z,53.60
2023-01-30T09:58:58.742Z,53.80
2023-01-30T10:01:56.240Z,54.10
2023-01-30T10:04:31.723Z,54.30
2023-01-30T10:07:28.310Z,54.50
2023-01-30T10:10:10.413Z,54.20
2023-01-30T10:12:55.174Z,54.60
2023-01-30T10:15:28.613Z,54.50
2023-01-30T10:18:07.359Z,54.50
2023-01-30T10:20:40.938Z,54.60
2023-01-30T10:23:11.025Z,54.00
2023-01-30T10:25:40.957Z,53.60
2023-01-30T10:28:34.831Z,53.70
2023-01-30T10:31:14.045Z,53.90
2023-01-30T10:34:03.941Z,53.70
2023-01-30T10:36:42.764Z,53.70
2023-01-30T10:39:22.819Z,53.80
2023-01-30T10:42:08.674Z,53.00
2023-01-30T10:44:38.127Z,53.50
2023-01-30T10:47:11.290Z,53.50
2023-01-30T10:49:54.214Z,53.60
2023-01-30T10:52:41.345Z,53.20
2023-01-30T10:55:22.137Z,53.20
2023-01-30T10:58:05.530Z,53.50
2023-01-30T11:00:36.312Z,53.30
2023-01-30T11:03:09.287Z,53.60
2023-01-30T11:06:06.311Z,53.80
2023-01-30T11:08:35.773Z,53.90
2023-01-30T11:11:34.198Z,54.30
2023-01-30T11:14:09.567Z,54.60
2023-01-30T11:16:52.410Z,54.10
2023-01-30T11:19:23.506Z,54.90
2023-01-30T11:21:54.078Z,54.90
2023-01-30T11:24:28.853Z,54.30
2023-01-30T11:27:09.750Z,54.10
2023-01-30T11:29:41.868Z,53.70
2023-01-30T11:32:24.381Z,53.40
2023-01-30T11:35:06.775Z,53.70
2023-01-30T11:37:33.970Z,54.00
2023-01-30T11:40:23.808Z,53.80
2023-01-30T11:42:58.208Z,53.40
2023-01-30T11:45:30.536Z,53.00
2023-01-30T11:48:04.649Z,53.00
2023-01-30T11:50:45.209Z,53.40
2023-01-30T11:53:42.549Z,53.20
2023-01-30T11:56:14.806Z,53.60
2023-01-30T11:58:46.318Z,53.20
2023-01-30T12:01:17.433Z,54.00
2023-01-30T12:03:49.163Z,53.40
2023-01-30T12:06:42.879Z,53.40
2023-01-30T12:09:35.011Z,54.00
2023-01-30T12:12:02.627Z,53.90
2023-01-30T12:14:44.966Z,53.50
2023-01-30T12:17:33.748Z,53.90
2023-01-30T12:20:28.791Z,54.40
2023-01-30T12:23:21.362Z,54.70
2023-01-30T12:26:06.266Z,54.90
2023-01-30T12:28:51.045Z,55.10
2023-01-30T12:31:43.910Z,55.40
2023-01-30T12:34:11.199Z,56.10
2023-01-30T12:37:16.121Z,56.20
2023-01-30T12:40:05.351Z,57.00
2023-01-30T12:42:55.373Z,57.20
2023-01-30T12:45:28.353Z,57.50
2023-01-30T12:48:17.020Z,57.60
2023-01-30T12:51:14.788Z,57.90
2023-01-30T12:53:51.043Z,58.20
2023-01-30T12:56:29.416Z,58.40
2023-01-30T12:59:38.777Z,58.70
2023-01-30T13:02:20.841Z,59.00
2023-01-30T13:05:07.160Z,59.20
2023-01-30T13:07:42.485Z,59.50
2023-01-30T13:10:43.369Z,59.50
2023-01-30T13:13:17.902Z,59.90
2023-01-30T13:15:52.349Z,60.00
2023-01-30T13:18:36.572Z,60.40
2023-01-30T13:21:29.780Z,60.70
2023-01-30T13:24:03.132Z,61.00
2023-01-30T13:26:35.792Z,60.90
2023-01-30T13:29:12.151Z,62.00
2023-01-30T13:31:51.397Z,61.80
2023-01-30T13:34:40.612Z,62.00
2023-01-30T13:37:14.951Z,62.60
2023-01-30T13:39:48.042Z,62.80
2023-01-30T13:42:41.651Z,63.20
2023-01-30T13:45:18.896Z,63.60
2023-01-30T13:47:49.524Z,63.70
2023-01-30T13:50:41.713Z,63.70
2023-01-30T13:53:33.804Z,64.00
2023-01-30T13:56:39.624Z,63.80
2023-01-30T13:59:21.843Z,63.40
2023-01-30T14:02:07.131Z,63.10
2023-01-30T14:04:54.468Z,64.10
2023-01-30T14:07:39.324Z,64.40
2023-01-30T14:10:09.402Z,64.70
2023-01-30T14:12:50.704Z,65.40
2023-01-30T14:15:21.137Z,65.10
2023-01-30T14:18:19.603Z,65.00
2023-01-30T14:20:49.752Z,65.70
2023-01-30T14:23:37.860Z,65.50
2023-01-30T14:26:05.217Z,65.90
2023-01-30T14:28:32.443Z,66.10
2023-01-30T14:31:01.709Z,66.30
2023-01-30T14:33:33.388Z,66.50
2023-01-30T14:36:00.678Z,66.60
2023-01-30T14:38:30.942Z,66.90
2023-01-30T14:41:01.319Z,67.00
2023-01-30T14:43:43.962Z,67.30
2023-01-30T14:46:17.483Z,67.30
2023-01-30T14:49:04.423Z,67.40
2023-01-30T14:51:37.378Z,67.80
2023-01-30T14:54:12.939Z,67.70
2023-01-30T14:56:40.458Z,68.00
2023-01-30T14:59:18.661Z,67.90
2023-01-30T15:02:04.627Z,68.10
2023-01-30T15:04:49.275Z,68.40
2023-01-30T15:07:52.233Z,68.50
2023-01-30T15:10:38.069Z,68.60
2023-01-30T15:13:17.532Z,68.70
2023-01-30T15:15:53.728Z,68.80
2023-01-30T15:18:47.204Z,68.90
2023-01-30T15:21:26.478Z,69.10
2023-01-30T15:24:07.205Z,69.30
2023-01-30T15:26:56.513Z,69.40
2023-01-30T15:29:29.989Z,69.30
2023-01-30T15:32:02.145Z,69.10
2023-01-30T15:34:31.336Z,69.10
2023-01-30T15:36:58.897Z,69.30
2023-01-30T15:39:31.046Z,69.40
2023-01-30T15:42:07.680Z,69.50
2023-01-30T15:45:02.468Z,69.70
2023-01-30T15:48:04.039Z,69.70
2023-01-30T15:50:31.432Z,69.50
2023-01-30T15:53:01.092Z,69.30
2023-01-30T15:55:37.581Z,69.20
2023-01-30T15:58:10.516Z,69.40
2023-01-30T16:00:45.847Z,69.30
2023-01-30T16:03:17.621Z,69.30
2023-01-30T16:05:52.209Z,69.20
2023-01-30T16:08:25.948Z,69.00
2023-01-30T16:10:56.277Z,69.00
2023-01-30T16:13:26.684Z,69.00
2023-01-30T16:15:56.906Z,69.00
2023-01-30T16:18:35.961Z,69.00
2023-01-30T16:21:07.264Z,69.40
2023-01-30T16:23:38.774Z,69.20
2023-01-30T16:26:09.842Z,69.30
2023-01-30T16:28:39.489Z,69.30
2023-01-30T16:31:09.426Z,69.30
2023-01-30T16:33:37.545Z,69.20
2023-01-30T16:36:24.800Z,69.20
2023-01-30T16:38:53.139Z,69.30
2023-01-30T16:41:33.747Z,69.10
2023-01-30T16:44:22.864Z,69.30
2023-01-30T16:47:00.521Z,69.10
2023-01-30T16:49:32.670Z,69.10
2023-01-30T16:52:16.585Z,68.80
2023-01-30T16:54:56.120Z,68.70
2023-01-30T16:57:36.099Z,68.50
2023-01-30T17:00:24.092Z,68.50
2023-01-30T17:03:00.286Z,68.30
2023-01-30T17:05:38.472Z,68.20
2023-01-30T17:08:06.218Z,68.10
2023-01-30T17:10:42.580Z,68.00
2023-01-30T17:13:34.817Z,67.80
2023-01-30T17:16:37.174Z,67.90
2023-01-30T17:19:07.004Z,67.80
2023-01-30T17:21:51.184Z,67.60
2023-01-30T17:24:25.715Z,67.50
2023-01-30T17:26:59.397Z,67.40
2023-01-30T17:29:41.892Z,67.40
2023-01-30T17:32:12.770Z,67.20
2023-01-30T17:34:41.306Z,67.20
2023-01-30T17:37:21.944Z,67.20
2023-01-30T17:39:49.314Z,67.10
2023-01-30T17:42:22.165Z,66.90
2023-01-30T17:44:50.095Z,66.90
2023-01-30T17:47:17.575Z,66.80
2023-01-30T17:49:47.227Z,66.80
2023-01-30T17:52:14.665Z,66.80
2023-01-30T17:54:41.963Z,66.70
2023-01-30T17:57:12.787Z,66.60
2023-01-30T17:59:42.513Z,66.70
2023-01-30T18:02:10.335Z,66.70
2023-01-30T18:04:39.991Z,66.60
2023-01-30T18:07:13.995Z,66.60
2023-01-30T18:09:41.235Z,66.50
2023-01-30T18:12:10.920Z,66.40
2023-01-30T18:14:38.212Z,66.40
2023-01-30T18:17:09.272Z,66.30
2023-01-30T18:19:36.551Z,66.20
2023-01-30T18:22:06.021Z,66.20
2023-01-30T18:24:33.476Z,66.20
2023-01-30T18:27:03.003Z,66.10
2023-01-30T18:29:30.348Z,66.00
2023-01-30T18:32:05.615Z,65.90
2023-01-30T18:34:32.993Z,65.80
2023-01-30T18:37:02.751Z,65.80
2023-01-30T18:39:31.916Z,65.70
2023-01-30T18:41:59.307Z,65.90
2023-01-30T18:44:28.961Z,65.90
2023-01-30T18:46:56.331Z,65.90
2023-01-30T18:49:23.600Z,65.80
2023-01-30T18:51:51.897Z,65.80
2023-01-30T18:54:23.862Z,65.80
2023-01-30T18:56:51.193Z,65.70
2023-01-30T18:59:18.428Z,65.60
2023-01-30T19:01:48.162Z,65.50
2023-01-30T19:04:15.434Z,65.30
2023-01-30T19:06:45.608Z,65.40
2023-01-30T19:09:17.322Z,65.40
2023-01-30T19:12:03.374Z,65.20
2023-01-30T19:14:30.898Z,65.20
2023-01-30T19:17:00.497Z,65.00
2023-01-30T19:19:28.403Z,65.10
2023-01-30T19:21:58.244Z,65.10
2023-01-30T19:24:27.919Z,65.00
2023-01-30T19:26:55.285Z,65.10
2023-01-30T19:29:22.653Z,65.20
2023-01-30T19:31:50.176Z,65.20
2023-01-30T19:34:20.056Z,65.40
2023-01-30T19:36:47.418Z,65.40
2023-01-30T19:39:17.049Z,65.50
2023-01-30T19:41:44.491Z,65.50
2023-01-30T19:44:12.418Z,65.50
2023-01-30T19:46:39.754Z,65.60
2023-01-30T19:49:07.082Z,65.70
2023-01-30T19:51:35.436Z,65.90
2023-01-30T19:54:07.718Z,66.00
2023-01-30T19:56:39.383Z,66.00
2023-01-30T19:59:06.740Z,66.00
2023-01-30T20:01:37.001Z,66.00
2023-01-30T20:04:06.820Z,65.90
2023-01-30T20:06:35.825Z,65.90
2023-01-30T20:09:11.210Z,66.00
2023-01-30T20:11:41.896Z,66.00
2023-01-30T20:14:10.046Z,65.90
2023-01-30T20:16:37.525Z,65.90
2023-01-30T20:19:08.139Z,65.90
2023-01-30T20:21:38.115Z,65.90
2023-01-30T20:24:08.181Z,65.80
2023-01-30T20:26:37.290Z,65.90
2023-01-30T20:29:06.032Z,65.80
2023-01-30T20:31:39.293Z,65.90
2023-01-30T20:34:12.004Z,65.80
2023-01-30T20:36:39.451Z,65.80
2023-01-30T20:39:11.818Z,65.70
2023-01-30T20:41:41.551Z,65.60
2023-01-30T20:44:11.862Z,65.50
2023-01-30T20:46:49.902Z,65.50
2023-01-30T20:49:23.437Z,65.60
2023-01-30T20:51:52.867Z,65.60
2023-01-30T20:54:25.671Z,65.70
2023-01-30T20:56:54.105Z,65.60
2023-01-30T20:59:24.913Z,65.50
2023-01-30T21:01:52.256Z,65.60
2023-01-30T21:04:24.412Z,65.50
2023-01-30T21:06:52.507Z,65.40
2023-01-30T21:09:24.388Z,65.50
2023-01-30T21:11:53.320Z,65.50
2023-01-30T21:14:20.973Z,65.50
2023-01-30T21:16:48.789Z,65.50
2023-01-30T21:19:19.643Z,65.40
2023-01-30T21:21:55.200Z,65.50
2023-01-30T21:24:25.731Z,65.40
2023-01-30T21:26:55.882Z,65.30
2023-01-30T21:29:26.521Z,65.30
2023-01-30T21:31:55.528Z,65.00
2023-01-30T21:34:28.703Z,65.10
2023-01-30T21:37:17.761Z,65.10
2023-01-30T21:40:03.777Z,65.10
2023-01-30T21:42:49.810Z,65.00
2023-01-30T21:45:17.594Z,64.90
2023-01-30T21:47:49.543Z,65.00
2023-01-30T21:50:17.024Z,64.90
2023-01-30T21:52:46.546Z,64.90
2023-01-30T21:55:13.872Z,64.90
2023-01-30T21:57:41.156Z,64.80
2023-01-30T22:00:09.033Z,64.80
2023-01-30T22:02:36.525Z,64.80
2023-01-30T22:05:04.438Z,64.70
2023-01-30T22:07:32.473Z,64.70
2023-01-30T22:10:02.154Z,64.60
2023-01-30T22:12:32.445Z,64.50
2023-01-30T22:15:02.071Z,64.60
2023-01-30T22:17:29.547Z,64.60
2023-01-30T22:19:56.867Z,64.60
2023-01-30T22:22:25.309Z,64.50
2023-01-30T22:24:52.722Z,64.50
2023-01-30T22:27:22.225Z,64.50
2023-01-30T22:29:51.978Z,64.60
2023-01-30T22:32:19.218Z,64.50
2023-01-30T22:34:46.603Z,64.40
2023-01-30T22:37:13.992Z,64.30
2023-01-30T22:39:43.470Z,64.40
2023-01-30T22:42:10.900Z,64.30
2023-01-30T22:44:40.643Z,64.30
2023-01-30T22:47:08.184Z,64.30
2023-01-30T22:49:35.849Z,64.40
2023-01-30T22:52:03.523Z,64.40
2023-01-30T22:54:32.939Z,64.30
2023-01-30T22:57:00.208Z,64.10
2023-01-30T22:59:27.538Z,64.20
2023-01-30T23:01:54.822Z,64.20
2023-01-30T23:04:23.702Z,64.10
2023-01-30T23:06:53.512Z,64.10
2023-01-30T23:09:22.710Z,64.00
2023-01-30T23:12:12.359Z,63.90
2023-01-30T23:14:40.569Z,64.10
2023-01-30T23:17:26.976Z,63.90
2023-01-30T23:19:57.569Z,64.00
2023-01-30T23:22:27.182Z,63.90
2023-01-30T23:24:54.588Z,63.90
2023-01-30T23:27:22.173Z,63.80
2023-01-30T23:29:49.416Z,63.90
2023-01-30T23:32:20.148Z,63.80
2023-01-30T23:34:50.344Z,64.00
2023-01-30T23:37:17.737Z,64.20
2023-01-30T23:39:45.642Z,64.40
2023-01-30T23:42:15.274Z,64.40
2023-01-30T23:44:42.762Z,64.40
2023-01-30T23:47:10.816Z,64.40
2023-01-30T23:49:40.548Z,64.30
2023-01-30T23:52:07.899Z,64.40
2023-01-30T23:54:35.232Z,64.30
2023-01-30T23:57:02.544Z,64.20
2023-01-30T23:59:29.908Z,64.40
